»·PEaware :: N2494V KBIL-KJAC

N2494V :: KBIL-KJAC

FLIGHT INFORMATION

Flight Status: Arrived
Operator: Privately registered:
United States
More flights under this callsign
Pilot: Sally S. (18014)
Aircraft: Unknown
(DA62)
More flights by this aircraft type
Origin: KBIL Billings Logan Intl
United States
Destination: KJAC Jackson Hole
United States
More flights between these airports :: More routes between these airports
Route: DNW
File this flight plan on PilotEdge
Remarks:
Altitude:
(Current/Filed)
14,500ft
Speed:
(Current/Filed)
165kts
Departed: 14-May-18 09:17 AM
Arrived: 14-May-18 10:57 AM
Distance/Time
Traveled:
162nm/1:40
Distance/Time
To Go:
Arrived

Flight Plot

Page will automatically refresh every two minutes.

Flight plan parsing failed; only flown route is shown


Map Options




Map Legend


Flown Route
Filed Route
Departure Airport
Arrival Airport
Navaid (VOR, NDB)
Fix

Horizontal Profiles

Position Reports

Time Latitude Longitude Heading Altitude Ground
Speed
14-May-18 08:50 45.802484 -108.527324 270 3655ft 0kts
14-May-18 08:51 45.802484 -108.527324 270 3655ft 0kts
14-May-18 08:52 45.802484 -108.527324 270 3655ft 0kts
14-May-18 08:53 45.802484 -108.527324 270 3655ft 0kts
14-May-18 08:54 45.802484 -108.527324 270 3655ft 0kts
14-May-18 08:55 45.802484 -108.527324 270 3655ft 0kts
14-May-18 08:56 45.802484 -108.527324 270 3655ft 0kts
14-May-18 08:57 45.802484 -108.527324 270 3655ft 0kts
14-May-18 08:58 45.802484 -108.527324 270 3655ft 0kts
14-May-18 08:59 45.802484 -108.527324 270 3655ft 0kts
14-May-18 09:00 45.802484 -108.527324 270 3655ft 0kts
14-May-18 09:01 45.802484 -108.527324 270 3655ft 0kts
14-May-18 09:02 45.802484 -108.527324 270 3655ft 0kts
14-May-18 09:03 45.802484 -108.527324 270 3655ft 0kts
14-May-18 09:04 45.802484 -108.527324 270 3655ft 0kts
14-May-18 09:05 45.802484 -108.527324 270 3655ft 0kts
14-May-18 09:06 45.802484 -108.527324 270 3655ft 0kts
14-May-18 09:07 45.802484 -108.527324 270 3655ft 0kts
14-May-18 09:08 45.802484 -108.527324 270 3655ft 0kts
14-May-18 09:09 45.802484 -108.527324 270 3655ft 0kts
14-May-18 09:10 45.802484 -108.527324 270 3655ft 0kts
14-May-18 09:11 45.802484 -108.527324 270 3655ft 0kts
14-May-18 09:12 45.803377 -108.525649 114 3655ft 9kts
14-May-18 09:13 45.801262 -108.517505 81 3655ft 10kts
14-May-18 09:14 45.801288 -108.517368 66 3655ft 0kts
14-May-18 09:15 45.801288 -108.517368 66 3655ft 0kts
14-May-18 09:16 45.801851 -108.516863 7 3655ft 11kts
14-May-18 09:17 45.809421 -108.545305 280 4104ft 110kts
14-May-18 09:18 45.817023 -108.587922 264 5261ft 110kts
14-May-18 09:19 45.796640 -108.611625 201 6087ft 101kts
14-May-18 09:20 45.771959 -108.632181 203 6874ft 107kts
14-May-18 09:21 45.746497 -108.654748 203 7636ft 111kts
14-May-18 09:22 45.720414 -108.678232 204 8481ft 129kts
14-May-18 09:23 45.685116 -108.710199 206 8494ft 172kts
14-May-18 09:24 45.645933 -108.745941 207 8490ft 179kts
14-May-18 09:25 45.605255 -108.782897 207 8490ft 180kts
14-May-18 09:26 45.565859 -108.818591 206 8489ft 175kts
14-May-18 09:27 45.529335 -108.851607 206 8490ft 174kts
14-May-18 09:28 45.488560 -108.888414 206 8490ft 173kts
14-May-18 09:29 45.448587 -108.924572 207 8490ft 173kts
14-May-18 09:30 45.407540 -108.961318 215 8499ft 177kts
14-May-18 09:31 45.364950 -108.991497 202 8519ft 182kts
14-May-18 09:32 45.318595 -109.017306 202 8529ft 185kts
14-May-18 09:33 45.272387 -109.043990 202 8537ft 186kts
14-May-18 09:34 45.224527 -109.071982 202 8537ft 186kts
14-May-18 09:35 45.177370 -109.099499 202 8537ft 187kts
14-May-18 09:36 45.129727 -109.127348 202 8537ft 187kts
14-May-18 09:37 45.080765 -109.151460 193 8539ft 186kts
14-May-18 09:38 45.030697 -109.166300 193 8537ft 182kts
14-May-18 09:39 44.981978 -109.179736 193 8537ft 177kts
14-May-18 09:40 44.934433 -109.193147 193 8537ft 173kts
14-May-18 09:41 44.888505 -109.199332 169 8539ft 174kts
14-May-18 09:42 44.843509 -109.184300 167 8542ft 173kts
14-May-18 09:43 44.796782 -109.161671 160 7737ft 198kts
14-May-18 09:44 44.747320 -109.129094 144 7044ft 190kts
14-May-18 09:45 44.706751 -109.087552 143 7043ft 176kts
14-May-18 09:46 44.668019 -109.047712 143 7043ft 170kts
14-May-18 09:47 44.625520 -109.021134 160 7045ft 168kts
14-May-18 09:48 44.594101 -109.005019 160 6939ft 172kts
14-May-18 09:49 44.547503 -109.000376 198 6217ft 176kts
14-May-18 09:50 44.513928 -109.040475 228 5610ft 160kts
14-May-18 09:51 44.506171 -109.014020 38 5695ft 134kts
14-May-18 09:52 44.533071 -108.990175 322 5770ft 110kts
14-May-18 09:53 44.523392 -109.017985 225 5106ft 29kts
14-May-18 09:54 44.520012 -109.020834 276 5106ft 0kts
14-May-18 09:55 44.520038 -109.020869 312 5106ft 0kts
14-May-18 09:56 44.520038 -109.020869 312 5106ft 0kts
14-May-18 09:57 44.520038 -109.020869 312 5106ft 0kts
14-May-18 09:58 44.520038 -109.020869 312 5106ft 0kts
14-May-18 09:59 44.520038 -109.020869 312 5106ft 0kts
14-May-18 10:00 44.520038 -109.020869 312 5106ft 0kts
14-May-18 10:01 44.520038 -109.020869 312 5106ft 0kts
14-May-18 10:02 44.520038 -109.020869 312 5106ft 0kts
14-May-18 10:03 44.520038 -109.020869 312 5106ft 0kts
14-May-18 10:04 44.520038 -109.020869 312 5106ft 0kts
14-May-18 10:05 44.520038 -109.020869 312 5106ft 0kts
14-May-18 10:06 44.520038 -109.020869 312 5106ft 0kts
14-May-18 10:07 44.520038 -109.020869 312 5106ft 0kts
14-May-18 10:08 44.520038 -109.020869 312 5106ft 0kts
14-May-18 10:09 44.520038 -109.020869 312 5106ft 0kts
14-May-18 10:10 44.520038 -109.020869 312 5106ft 0kts
14-May-18 10:11 44.520038 -109.020869 312 5106ft 0kts
14-May-18 10:12 44.520038 -109.020869 312 5106ft 0kts
14-May-18 10:13 44.520038 -109.020869 312 5106ft 0kts
14-May-18 10:14 44.520118 -109.020988 318 5106ft 7kts
14-May-18 10:15 44.524280 -109.013904 50 5106ft 25kts
14-May-18 10:16 44.524750 -109.015725 233 5106ft 76kts
14-May-18 10:17 44.506758 -109.044083 229 6206ft 102kts
14-May-18 10:18 44.488146 -109.075217 235 7421ft 118kts
14-May-18 10:19 44.469654 -109.110998 235 8482ft 126kts
14-May-18 10:20 44.464530 -109.163473 277 8541ft 164kts
14-May-18 10:21 44.469800 -109.224985 277 8537ft 173kts
14-May-18 10:22 44.474677 -109.281237 277 8536ft 175kts
14-May-18 10:23 44.478294 -109.341110 273 8536ft 175kts
14-May-18 10:24 44.480755 -109.401977 272 8697ft 169kts
14-May-18 10:25 44.480206 -109.463640 266 8978ft 166kts
14-May-18 10:26 44.475569 -109.527798 263 9277ft 165kts
14-May-18 10:27 44.469604 -109.591018 262 9573ft 165kts
14-May-18 10:28 44.463763 -109.653243 262 9863ft 164kts
14-May-18 10:29 44.458941 -109.711360 271 10135ft 164kts
14-May-18 10:30 44.461123 -109.771753 272 10419ft 164kts
14-May-18 10:31 44.463578 -109.835152 273 10538ft 172kts
14-May-18 10:32 44.466533 -109.908632 277 10535ft 176kts
14-May-18 10:33 44.481685 -109.959510 276 10542ft 176kts
14-May-18 10:34 44.481402 -110.026648 258 10548ft 176kts
14-May-18 10:35 44.467657 -110.091501 240 10554ft 176kts
14-May-18 10:36 44.437676 -110.145077 229 10557ft 177kts
14-May-18 10:37 44.399500 -110.183478 207 10381ft 187kts
14-May-18 10:38 44.352722 -110.216449 207 10052ft 184kts
14-May-18 10:39 44.311002 -110.245972 207 10531ft 164kts
14-May-18 10:40 44.268667 -110.275940 207 10546ft 175kts
14-May-18 10:41 44.221821 -110.293041 185 10546ft 178kts
14-May-18 10:42 44.172702 -110.298481 185 10545ft 179kts
14-May-18 10:43 44.126370 -110.319763 202 10545ft 178kts
14-May-18 10:44 44.081387 -110.344993 202 10509ft 179kts
14-May-18 10:45 44.037836 -110.373051 211 10509ft 178kts
14-May-18 10:46 43.995948 -110.408794 212 10509ft 178kts
14-May-18 10:47 43.954156 -110.444412 212 10509ft 177kts
14-May-18 10:48 43.912615 -110.479755 212 10509ft 177kts
14-May-18 10:49 43.874573 -110.512066 212 10346ft 185kts
14-May-18 10:50 43.829945 -110.549911 212 9855ft 191kts
14-May-18 10:51 43.784940 -110.588952 218 9223ft 197kts
14-May-18 10:52 43.746587 -110.639765 224 8265ft 184kts
14-May-18 10:53 43.712623 -110.683135 213 7662ft 170kts
14-May-18 10:54 43.674230 -110.705045 198 7081ft 127kts
14-May-18 10:55 43.643383 -110.720209 200 6903ft 98kts
14-May-18 10:56 43.618206 -110.732415 199 6551ft 97kts
14-May-18 10:57 43.600859 -110.740790 192 6455ft 25kts
14-May-18 10:58 43.600259 -110.738613 45 6455ft 7kts
14-May-18 10:59 43.600656 -110.738132 287 6455ft 0kts
14-May-18 11:00 43.600656 -110.738132 287 6455ft 0kts
14-May-18 11:01 43.600656 -110.738132 287 6455ft 0kts
14-May-18 11:02 43.600656 -110.738132 287 6455ft 0kts
14-May-18 11:03 43.600656 -110.738132 287 6455ft 0kts

Navigation Log

Ident Type
Flight plan parsing failed, navigation log unavailable